createdAt,value
2023-04-17T00:00:50.190Z,100821.27
2023-04-17T00:03:18.046Z,100815.15
2023-04-17T00:05:46.016Z,100820.45
2023-04-17T00:08:15.324Z,100816.00
2023-04-17T00:10:46.983Z,100822.65
2023-04-17T00:13:20.980Z,100827.61
2023-04-17T00:15:48.662Z,100828.45
2023-04-17T00:18:16.329Z,100824.57
2023-04-17T00:20:44.397Z,100831.58
2023-04-17T00:23:12.358Z,100822.71
2023-04-17T00:25:40.049Z,100827.77
2023-04-17T00:28:07.870Z,100827.33
2023-04-17T00:30:35.543Z,100827.63
2023-04-17T00:33:03.353Z,100830.28
2023-04-17T00:35:31.126Z,100830.02
2023-04-17T00:37:58.704Z,100826.84
2023-04-17T00:40:26.230Z,100830.74
2023-04-17T00:42:56.008Z,100830.20
2023-04-17T00:45:23.870Z,100831.86
2023-04-17T00:47:51.739Z,100831.61
2023-04-17T00:50:19.330Z,100827.72
2023-04-17T00:52:47.894Z,100827.35
2023-04-17T00:55:15.483Z,100826.65
2023-04-17T00:57:44.477Z,100827.03
2023-04-17T01:00:12.485Z,100826.55
2023-04-17T01:02:40.946Z,100827.84
2023-04-17T01:05:08.927Z,100825.02
2023-04-17T01:07:36.604Z,100825.23
2023-04-17T01:10:04.893Z,100825.15
2023-04-17T01:12:33.131Z,100826.56
2023-04-17T01:15:00.767Z,100826.66
2023-04-17T01:17:30.378Z,100824.89
2023-04-17T01:19:58.294Z,100822.60
2023-04-17T01:22:26.274Z,100825.35
2023-04-17T01:24:56.258Z,100826.52
2023-04-17T01:27:25.822Z,100824.90
2023-04-17T01:29:53.317Z,100825.50
2023-04-17T01:32:21.370Z,100823.71
2023-04-17T01:34:49.377Z,100826.91
2023-04-17T01:37:16.881Z,100828.05
2023-04-17T01:39:44.435Z,100825.79
2023-04-17T01:42:12.156Z,100824.85
2023-04-17T01:44:39.790Z,100820.41
2023-04-17T01:47:07.716Z,100822.21
2023-04-17T01:49:35.449Z,100820.77
2023-04-17T01:52:03.011Z,100823.22
2023-04-17T01:54:31.001Z,100821.32
2023-04-17T01:56:58.596Z,100824.13
2023-04-17T01:59:26.815Z,100825.65
2023-04-17T02:01:54.902Z,100823.44
2023-04-17T02:04:22.458Z,100824.50
2023-04-17T02:06:50.355Z,100820.49
2023-04-17T02:09:18.605Z,100823.55
2023-04-17T02:11:46.338Z,100821.27
2023-04-17T02:14:13.751Z,100818.79
2023-04-17T02:16:45.583Z,100824.21
2023-04-17T02:19:13.478Z,100826.31
2023-04-17T02:21:41.961Z,100827.23
2023-04-17T02:24:09.495Z,100834.45
2023-04-17T02:26:37.309Z,100836.77
2023-04-17T02:29:05.928Z,100834.02
2023-04-17T02:31:33.560Z,100831.90
2023-04-17T02:34:01.068Z,100834.92
2023-04-17T02:36:28.642Z,100837.55
2023-04-17T02:38:56.627Z,100841.85
2023-04-17T02:41:24.140Z,100841.60
2023-04-17T02:43:51.606Z,100835.77
2023-04-17T02:46:19.131Z,100839.66
2023-04-17T02:48:46.595Z,100844.33
2023-04-17T02:51:14.030Z,100843.43
2023-04-17T02:53:41.760Z,100847.13
2023-04-17T02:56:09.353Z,100849.39
2023-04-17T02:58:37.330Z,100849.86
2023-04-17T03:01:06.395Z,100850.23
2023-04-17T03:03:38.644Z,100845.66
2023-04-17T03:06:09.283Z,100853.16
2023-04-17T03:08:38.185Z,100853.17
2023-04-17T03:11:05.961Z,100853.02
2023-04-17T03:13:36.849Z,100857.83
2023-04-17T03:16:05.134Z,100858.92
2023-04-17T03:18:34.988Z,100863.08
2023-04-17T03:21:02.787Z,100863.46
2023-04-17T03:23:30.474Z,100868.38
2023-04-17T03:25:58.378Z,100867.23
2023-04-17T03:28:26.817Z,100874.60
2023-04-17T03:30:57.691Z,100873.52
2023-04-17T03:33:25.616Z,100876.91
2023-04-17T03:35:53.944Z,100880.86
2023-04-17T03:38:21.823Z,100882.21
2023-04-17T03:40:49.369Z,100885.19
2023-04-17T03:43:16.755Z,100886.77
2023-04-17T03:45:46.428Z,100890.61
2023-04-17T03:48:14.146Z,100894.77
2023-04-17T03:50:42.141Z,100894.16
2023-04-17T03:53:09.628Z,100897.46
2023-04-17T03:55:37.800Z,100898.96
2023-04-17T03:58:05.536Z,100901.61
2023-04-17T04:00:33.651Z,100904.73
2023-04-17T04:03:03.993Z,100905.38
2023-04-17T04:05:37.908Z,100904.65
2023-04-17T04:08:05.395Z,100905.47
2023-04-17T04:10:37.766Z,100906.00
2023-04-17T04:13:05.631Z,100903.77
2023-04-17T04:15:32.907Z,100903.78
2023-04-17T04:18:02.786Z,100899.06
2023-04-17T04:20:31.611Z,100898.35
2023-04-17T04:23:09.163Z,100903.93
2023-04-17T04:25:41.568Z,100903.88
2023-04-17T04:28:23.108Z,100909.81
2023-04-17T04:30:51.105Z,100914.30
2023-04-17T04:33:20.012Z,100913.19
2023-04-17T04:35:47.880Z,100917.53
2023-04-17T04:38:16.808Z,100910.56
2023-04-17T04:40:51.854Z,100917.30
2023-04-17T04:43:22.295Z,100920.19
2023-04-17T04:45:53.031Z,100920.29
2023-04-17T04:48:20.617Z,100925.41
2023-04-17T04:50:47.895Z,100923.58
2023-04-17T04:53:15.537Z,100928.45
2023-04-17T04:55:47.643Z,100927.05
2023-04-17T04:58:15.096Z,100924.46
2023-04-17T05:00:43.415Z,100927.03
2023-04-17T05:03:13.594Z,100925.41
2023-04-17T05:05:43.048Z,100923.30
2023-04-17T05:08:12.174Z,100920.58
2023-04-17T05:10:39.947Z,100923.96
2023-04-17T05:13:08.185Z,100922.86
2023-04-17T05:15:36.013Z,100921.56
2023-04-17T05:18:04.136Z,100923.83
2023-04-17T05:20:33.278Z,100926.46
2023-04-17T05:23:00.640Z,100929.98
2023-04-17T05:25:27.960Z,100929.45
2023-04-17T05:27:55.942Z,100930.16
2023-04-17T05:30:23.486Z,100930.88
2023-04-17T05:32:55.729Z,100934.61
2023-04-17T05:35:31.975Z,100935.52
2023-04-17T05:37:59.922Z,100939.17
2023-04-17T05:40:27.177Z,100940.91
2023-04-17T05:42:55.377Z,100940.98
2023-04-17T05:45:24.947Z,100948.92
2023-04-17T05:47:53.096Z,100948.29
2023-04-17T05:50:21.178Z,100953.38
2023-04-17T05:52:48.747Z,100949.52
2023-04-17T05:55:16.657Z,100953.33
2023-04-17T05:57:44.192Z,100952.45
2023-04-17T06:00:12.698Z,100955.48
2023-04-17T06:02:43.070Z,100949.83
2023-04-17T06:05:14.356Z,100952.70
2023-04-17T06:07:42.554Z,100952.63
2023-04-17T06:10:10.126Z,100954.60
2023-04-17T06:12:38.112Z,100959.08
2023-04-17T06:15:09.057Z,100959.04
2023-04-17T06:17:37.360Z,100958.39
2023-04-17T06:20:07.959Z,100960.42
2023-04-17T06:22:35.850Z,100959.73
2023-04-17T06:25:03.368Z,100966.45
2023-04-17T06:27:31.727Z,100967.33
2023-04-17T06:29:59.187Z,100971.83
2023-04-17T06:32:26.972Z,100977.24
2023-04-17T06:34:59.584Z,100972.72
2023-04-17T06:37:47.354Z,100973.84
2023-04-17T06:40:15.356Z,100974.55
2023-04-17T06:42:42.816Z,100974.77
2023-04-17T06:45:13.322Z,100975.91
2023-04-17T06:47:42.180Z,100978.02
2023-04-17T06:50:09.774Z,100978.95
2023-04-17T06:52:37.348Z,100975.77
2023-04-17T06:55:05.034Z,100978.70
2023-04-17T06:57:33.710Z,100977.08
2023-04-17T07:00:01.041Z,100981.23
2023-04-17T07:02:28.743Z,100985.70
2023-04-17T07:04:56.279Z,100983.36
2023-04-17T07:07:23.602Z,100981.75
2023-04-17T07:09:51.123Z,100982.23
2023-04-17T07:12:18.590Z,100980.71
2023-04-17T07:14:45.926Z,100985.98
2023-04-17T07:17:13.592Z,100983.21
2023-04-17T07:19:40.810Z,100986.16
2023-04-17T07:22:09.962Z,100981.73
2023-04-17T07:24:37.284Z,100984.09
2023-04-17T07:27:04.846Z,100987.02
2023-04-17T07:29:32.377Z,100991.33
2023-04-17T07:31:59.591Z,100991.54
2023-04-17T07:34:30.725Z,100992.17
2023-04-17T07:36:58.020Z,100987.08
2023-04-17T07:39:28.063Z,100993.80
2023-04-17T07:41:55.980Z,100994.13
2023-04-17T07:44:23.448Z,100991.30
2023-04-17T07:46:50.857Z,100997.64
2023-04-17T07:49:18.493Z,101003.72
2023-04-17T07:51:46.477Z,101002.20
2023-04-17T07:54:13.803Z,101002.90
2023-04-17T07:56:40.985Z,101003.70
2023-04-17T07:59:09.256Z,101005.05
2023-04-17T08:01:37.479Z,101004.23
2023-04-17T08:04:05.177Z,100999.83
2023-04-17T08:06:33.773Z,100999.14
2023-04-17T08:09:02.108Z,100995.43
2023-04-17T08:11:29.746Z,100992.59
2023-04-17T08:13:57.182Z,100992.21
2023-04-17T08:16:24.677Z,100990.11
2023-04-17T08:18:51.884Z,100989.95
2023-04-17T08:21:19.217Z,100992.17
2023-04-17T08:23:47.112Z,100983.98
2023-04-17T08:26:14.298Z,100984.60
2023-04-17T08:28:41.483Z,100986.34
2023-04-17T08:31:10.214Z,100984.10
2023-04-17T08:33:37.468Z,100981.38
2023-04-17T08:36:06.545Z,100977.63
2023-04-17T08:41:23.553Z,100976.77
2023-04-17T08:43:51.087Z,100974.73
2023-04-17T08:46:21.044Z,100977.83
2023-04-17T08:48:48.986Z,100972.19
2023-04-17T08:51:17.464Z,100968.98
2023-04-17T08:53:44.659Z,100972.08
2023-04-17T08:56:11.807Z,100969.64
2023-04-17T08:58:39.131Z,100973.62
2023-04-17T09:01:10.812Z,100973.05
2023-04-17T09:03:45.448Z,100971.88
2023-04-17T09:06:13.369Z,100977.71
2023-04-17T09:09:07.704Z,100978.95
2023-04-17T09:11:35.533Z,100981.46
2023-04-17T09:14:02.726Z,100978.02
2023-04-17T09:16:32.280Z,100980.02
2023-04-17T09:19:06.673Z,100982.54
2023-04-17T09:21:34.710Z,100977.04
2023-04-17T09:24:02.891Z,100974.85
2023-04-17T09:26:31.327Z,100972.86
2023-04-17T09:29:07.453Z,100964.23
2023-04-17T09:31:34.784Z,100967.67
2023-04-17T09:34:02.914Z,100963.77
2023-04-17T09:36:31.049Z,100966.98
2023-04-17T09:39:00.522Z,100963.23
2023-04-17T09:41:38.845Z,100959.81
2023-04-17T09:44:06.424Z,100960.58
2023-04-17T09:46:37.767Z,100959.31
2023-04-17T09:49:15.338Z,100959.80
2023-04-17T09:51:42.682Z,100954.69
2023-04-17T09:54:11.348Z,100949.90
2023-04-17T09:56:39.620Z,100950.17
2023-04-17T09:59:07.119Z,100951.83
2023-04-17T10:01:35.116Z,100950.86
2023-04-17T10:04:03.270Z,100950.55
2023-04-17T10:06:31.089Z,100949.83
2023-04-17T10:08:58.372Z,100950.53
2023-04-17T10:11:26.224Z,100945.05
2023-04-17T10:13:59.754Z,100949.86
2023-04-17T10:16:37.139Z,100945.79
2023-04-17T10:19:23.654Z,100944.79
2023-04-17T10:22:11.487Z,100933.95
2023-04-17T10:24:39.075Z,100933.95
2023-04-17T10:27:35.920Z,100929.20
2023-04-17T10:30:03.898Z,100927.80
2023-04-17T10:32:32.276Z,100926.77
2023-04-17T10:35:00.659Z,100918.05
2023-04-17T10:37:46.773Z,100923.77
2023-04-17T10:40:20.399Z,100919.96
2023-04-17T10:43:06.257Z,100916.41
2023-04-17T10:45:53.562Z,100917.48
2023-04-17T10:48:30.890Z,100919.90
2023-04-17T10:50:58.576Z,100915.94
2023-04-17T10:53:38.065Z,100908.77
2023-04-17T10:56:05.564Z,100911.46
2023-04-17T10:58:32.933Z,100912.38
2023-04-17T11:01:03.450Z,100918.41
2023-04-17T11:03:31.075Z,100914.46
2023-04-17T11:05:58.670Z,100913.71
2023-04-17T11:08:26.551Z,100915.64
2023-04-17T11:10:56.615Z,100911.70
2023-04-17T11:13:24.086Z,100910.15
2023-04-17T11:15:52.341Z,100909.18
2023-04-17T11:18:21.001Z,100905.41
2023-04-17T11:20:49.650Z,100900.53
2023-04-17T11:23:17.508Z,100892.73
2023-04-17T11:25:45.098Z,100886.98
2023-04-17T11:28:13.830Z,100891.38
2023-04-17T11:30:44.239Z,100888.13
2023-04-17T11:33:15.928Z,100883.64
2023-04-17T11:35:43.676Z,100884.54
2023-04-17T11:38:17.317Z,100879.27
2023-04-17T11:40:45.744Z,100879.04
2023-04-17T11:43:13.653Z,100878.95
2023-04-17T11:45:42.089Z,100868.64
2023-04-17T11:48:12.993Z,100869.45
2023-04-17T11:50:41.063Z,100867.23
2023-04-17T11:53:08.377Z,100866.56
2023-04-17T11:55:35.977Z,100864.33
2023-04-17T11:58:05.878Z,100860.08
2023-04-17T12:00:33.816Z,100854.98
2023-04-17T12:03:01.677Z,100854.07
2023-04-17T12:05:29.753Z,100848.12
2023-04-17T12:08:15.911Z,100849.13
2023-04-17T12:10:43.730Z,100846.26
2023-04-17T12:13:11.334Z,100848.54
2023-04-17T12:15:38.833Z,100850.84
2023-04-17T12:18:08.476Z,100852.70
2023-04-17T12:20:36.341Z,100849.99
2023-04-17T12:23:04.055Z,100847.99
2023-04-17T12:25:31.759Z,100849.70
2023-04-17T12:27:59.234Z,100850.60
2023-04-17T12:30:26.911Z,100846.66
2023-04-17T12:32:54.616Z,100843.65
2023-04-17T12:35:22.285Z,100843.83
2023-04-17T12:37:51.159Z,100841.89
2023-04-17T12:40:18.946Z,100842.97
2023-04-17T12:42:49.620Z,100843.58
2023-04-17T12:45:17.339Z,100844.35
2023-04-17T12:47:44.715Z,100845.52
2023-04-17T12:50:12.193Z,100847.58
2023-04-17T12:52:40.125Z,100842.62
2023-04-17T12:55:07.750Z,100844.20
2023-04-17T12:57:36.287Z,100841.84
2023-04-17T13:00:06.070Z,100840.83
2023-04-17T13:02:34.221Z,100838.10
2023-04-17T13:05:02.367Z,100834.44
2023-04-17T13:07:30.251Z,100835.52
2023-04-17T13:09:57.748Z,100835.77
2023-04-17T13:12:25.558Z,100832.79
2023-04-17T13:14:53.124Z,100837.41
2023-04-17T13:17:21.236Z,100838.05
2023-04-17T13:19:48.624Z,100834.20
2023-04-17T13:22:17.421Z,100832.29
2023-04-17T13:24:44.908Z,100826.33
2023-04-17T13:27:12.153Z,100829.17
2023-04-17T13:29:39.489Z,100832.39
2023-04-17T13:32:06.889Z,100827.44
2023-04-17T13:34:34.011Z,100826.86
2023-04-17T13:37:01.146Z,100829.35
2023-04-17T13:39:28.643Z,100827.27
2023-04-17T13:41:57.930Z,100832.92
2023-04-17T13:44:25.270Z,100832.44
2023-04-17T13:46:52.907Z,100836.90
2023-04-17T13:49:20.788Z,100835.24
2023-04-17T13:51:48.236Z,100835.61
2023-04-17T13:54:16.049Z,100832.19
2023-04-17T13:56:45.275Z,100831.58
2023-04-17T13:59:12.888Z,100834.85
2023-04-17T14:01:40.902Z,100829.55
2023-04-17T14:04:09.090Z,100828.65
2023-04-17T14:06:36.860Z,100826.45
2023-04-17T14:09:07.314Z,100823.45
2023-04-17T14:11:34.696Z,100823.43
2023-04-17T14:14:01.926Z,100820.64
2023-04-17T14:16:29.486Z,100817.25
2023-04-17T14:18:59.461Z,100822.39
2023-04-17T14:21:32.516Z,100818.36
2023-04-17T14:23:59.932Z,100819.06
2023-04-17T14:26:27.233Z,100818.40
2023-04-17T14:28:54.846Z,100818.48
2023-04-17T14:31:22.693Z,100820.16
2023-04-17T14:33:50.261Z,100813.77
2023-04-17T14:36:17.593Z,100811.41
2023-04-17T14:38:48.926Z,100812.71
2023-04-17T14:41:16.577Z,100808.47
2023-04-17T14:43:44.238Z,100810.70
2023-04-17T14:46:11.781Z,100805.39
2023-04-17T14:48:54.075Z,100801.70
2023-04-17T14:51:24.211Z,100800.25
2023-04-17T14:53:52.931Z,100796.60
2023-04-17T14:56:21.356Z,100796.20
2023-04-17T14:58:49.043Z,100798.89
2023-04-17T15:01:16.358Z,100795.72
2023-04-17T15:03:47.457Z,100795.54
2023-04-17T15:06:16.224Z,100794.83
2023-04-17T15:08:43.793Z,100787.48
2023-04-17T15:11:11.290Z,100782.75
2023-04-17T15:13:41.588Z,100781.02
2023-04-17T15:16:09.787Z,100780.48
2023-04-17T15:18:39.072Z,100781.60
2023-04-17T15:21:06.790Z,100785.09
2023-04-17T15:23:35.334Z,100782.20
2023-04-17T15:26:02.644Z,100779.86
2023-04-17T15:28:33.730Z,100778.76
2023-04-17T15:31:03.777Z,100778.27
2023-04-17T15:33:32.840Z,100777.39
2023-04-17T15:36:00.964Z,100776.94
2023-04-17T15:38:28.498Z,100777.01
2023-04-17T15:40:55.979Z,100777.59
2023-04-17T15:43:23.617Z,100781.40
2023-04-17T15:45:51.118Z,100785.52
2023-04-17T15:48:18.652Z,100783.73
2023-04-17T15:50:46.102Z,100783.59
2023-04-17T15:53:13.504Z,100783.66
2023-04-17T15:55:40.878Z,100792.39
2023-04-17T15:58:08.227Z,100786.34
2023-04-17T16:00:37.179Z,100788.95
2023-04-17T16:03:07.341Z,100791.68
2023-04-17T16:05:35.101Z,100789.73
2023-04-17T16:08:02.518Z,100792.91
2023-04-17T16:10:29.926Z,100791.89
2023-04-17T16:12:57.826Z,100791.52
2023-04-17T16:15:25.182Z,100795.08
2023-04-17T16:17:52.733Z,100796.24
2023-04-17T16:20:20.184Z,100794.87
2023-04-17T16:22:47.593Z,100800.30
2023-04-17T16:25:14.964Z,100799.67
2023-04-17T16:27:42.426Z,100794.35
2023-04-17T16:30:10.479Z,100796.89
2023-04-17T16:32:38.067Z,100798.66
2023-04-17T16:35:06.257Z,100801.58
2023-04-17T16:37:34.102Z,100800.47
2023-04-17T16:40:04.501Z,100805.20
2023-04-17T16:42:32.768Z,100803.09
2023-04-17T16:45:00.249Z,100805.86
2023-04-17T16:47:30.928Z,100807.09
2023-04-17T16:49:58.616Z,100807.14
2023-04-17T16:52:26.210Z,100806.84
2023-04-17T16:54:53.597Z,100806.93
2023-04-17T16:57:21.478Z,100805.67
2023-04-17T16:59:48.911Z,100809.55
2023-04-17T17:02:16.373Z,100807.61
2023-04-17T17:04:45.618Z,100804.11
2023-04-17T17:07:13.039Z,100808.42
2023-04-17T17:09:40.442Z,100805.90
2023-04-17T17:12:07.988Z,100808.65
2023-04-17T17:14:36.496Z,100805.50
2023-04-17T17:17:03.768Z,100806.11
2023-04-17T17:19:32.327Z,100807.36
2023-04-17T17:21:59.727Z,100807.52
2023-04-17T17:24:26.984Z,100810.73
2023-04-17T17:26:54.439Z,100809.85
2023-04-17T17:29:21.795Z,100812.13
2023-04-17T17:31:49.326Z,100812.67
2023-04-17T17:34:26.130Z,100812.09
2023-04-17T17:36:54.695Z,100813.34
2023-04-17T17:39:22.496Z,100807.36
2023-04-17T17:41:49.989Z,100805.94
2023-04-17T17:44:17.407Z,100808.17
2023-04-17T17:46:44.992Z,100807.45
2023-04-17T17:49:12.682Z,100810.02
2023-04-17T17:51:40.235Z,100806.57
2023-04-17T17:54:07.715Z,100806.88
2023-04-17T17:56:35.331Z,100804.23
2023-04-17T17:59:02.832Z,100800.64
2023-04-17T18:01:30.771Z,100797.04
2023-04-17T18:03:59.061Z,100801.16
2023-04-17T18:06:27.621Z,100798.10
2023-04-17T18:08:55.260Z,100799.98
2023-04-17T18:11:24.771Z,100797.73
2023-04-17T18:13:52.425Z,100798.62
2023-04-17T18:16:21.277Z,100801.36
2023-04-17T18:18:49.605Z,100802.66
2023-04-17T18:21:17.117Z,100804.77
2023-04-17T18:23:44.894Z,100801.27
2023-04-17T18:26:12.802Z,100801.95
2023-04-17T18:28:40.569Z,100800.63
2023-04-17T18:31:08.189Z,100799.39
2023-04-17T18:33:36.054Z,100797.62
2023-04-17T18:36:04.523Z,100796.67
2023-04-17T18:38:33.161Z,100801.50
2023-04-17T18:41:01.056Z,100796.51
2023-04-17T18:43:29.027Z,100796.04
2023-04-17T18:45:56.460Z,100793.70
2023-04-17T18:48:24.208Z,100793.70
2023-04-17T18:50:51.867Z,100794.85
2023-04-17T18:53:19.544Z,100789.65
2023-04-17T18:55:47.039Z,100789.34
2023-04-17T18:58:14.683Z,100783.91
2023-04-17T19:00:42.074Z,100785.78
2023-04-17T19:03:10.072Z,100783.10
2023-04-17T19:05:37.959Z,100783.19
2023-04-17T19:08:05.674Z,100781.56
2023-04-17T19:10:33.416Z,100778.55
2023-04-17T19:13:01.123Z,100777.56
2023-04-17T19:15:28.938Z,100775.73
2023-04-17T19:17:56.813Z,100776.61
2023-04-17T19:20:24.326Z,100767.66
2023-04-17T19:22:52.146Z,100774.27
2023-04-17T19:25:19.527Z,100772.17
2023-04-17T19:27:46.813Z,100773.05
2023-04-17T19:30:14.038Z,100770.88
2023-04-17T19:32:42.025Z,100768.75
2023-04-17T19:35:09.316Z,100763.14
2023-04-17T19:37:36.646Z,100763.71
2023-04-17T19:40:08.627Z,100761.04
2023-04-17T19:42:42.108Z,100761.82
2023-04-17T19:45:10.490Z,100761.27
2023-04-17T19:47:39.924Z,100758.63
2023-04-17T19:50:09.698Z,100760.39
2023-04-17T19:52:38.170Z,100758.39
2023-04-17T19:55:07.152Z,100759.38
2023-04-17T19:57:34.909Z,100758.45
2023-04-17T20:00:02.457Z,100758.55
2023-04-17T20:02:40.685Z,100756.23
2023-04-17T20:05:08.902Z,100757.16
2023-04-17T20:07:36.900Z,100754.92
2023-04-17T20:10:04.967Z,100750.20
2023-04-17T20:12:32.734Z,100749.06
2023-04-17T20:15:00.059Z,100741.45
2023-04-17T20:17:27.461Z,100740.68
2023-04-17T20:19:54.900Z,100737.98
2023-04-17T20:22:22.259Z,100736.55
2023-04-17T20:24:51.320Z,100731.00
2023-04-17T20:27:21.226Z,100728.20
2023-04-17T20:29:48.470Z,100727.44
2023-04-17T20:32:17.544Z,100723.80
2023-04-17T20:34:45.159Z,100721.33
2023-04-17T20:37:12.365Z,100722.27
2023-04-17T20:39:40.771Z,100719.17
2023-04-17T20:42:08.015Z,100720.27
2023-04-17T20:44:35.360Z,100721.02
2023-04-17T20:47:03.204Z,100715.62
2023-04-17T20:49:33.772Z,100717.66
2023-04-17T20:52:02.780Z,100718.52
2023-04-17T20:54:30.547Z,100713.47
2023-04-17T20:56:57.904Z,100710.85
2023-04-17T20:59:25.211Z,100711.62
2023-04-17T21:01:52.823Z,100710.89
2023-04-17T21:04:21.825Z,100704.13
2023-04-17T21:06:49.319Z,100705.15
2023-04-17T21:09:16.789Z,100704.38
2023-04-17T21:11:45.087Z,100705.09
2023-04-17T21:14:14.986Z,100701.88
2023-04-17T21:16:45.168Z,100701.24
2023-04-17T21:19:13.633Z,100700.64
2023-04-17T21:21:41.089Z,100700.17
2023-04-17T21:24:08.685Z,100701.77
2023-04-17T21:26:36.009Z,100701.02
2023-04-17T21:29:03.217Z,100698.63
2023-04-17T21:31:30.613Z,100696.30
2023-04-17T21:33:58.329Z,100691.84
2023-04-17T21:36:28.292Z,100694.46
2023-04-17T21:38:55.817Z,100693.98
2023-04-17T21:41:23.121Z,100691.38
2023-04-17T21:43:50.817Z,100692.23
2023-04-17T21:46:18.182Z,100695.44
2023-04-17T21:48:45.492Z,100691.04
2023-04-17T21:51:13.071Z,100689.77
2023-04-17T21:53:40.363Z,100689.13
2023-04-17T21:56:08.241Z,100688.89
2023-04-17T21:58:36.037Z,100688.77
2023-04-17T22:01:03.431Z,100690.86
2023-04-17T22:03:30.871Z,100688.41
2023-04-17T22:05:58.114Z,100684.89
2023-04-17T22:08:25.983Z,100681.66
2023-04-17T22:10:53.242Z,100679.71
2023-04-17T22:13:21.054Z,100681.68
2023-04-17T22:15:48.614Z,100685.48
2023-04-17T22:18:16.187Z,100683.11
2023-04-17T22:20:43.539Z,100679.88
2023-04-17T22:23:11.069Z,100675.86
2023-04-17T22:25:38.268Z,100676.62
2023-04-17T22:28:05.570Z,100676.34
2023-04-17T22:30:33.014Z,100672.86
2023-04-17T22:33:00.332Z,100672.86
2023-04-17T22:35:27.585Z,100669.29
2023-04-17T22:37:54.884Z,100671.05
2023-04-17T22:40:22.119Z,100666.65
2023-04-17T22:42:50.146Z,100666.73
2023-04-17T22:45:17.572Z,100666.55
2023-04-17T22:47:45.029Z,100664.73
2023-04-17T22:50:13.965Z,100663.59
2023-04-17T22:52:41.412Z,100664.23
2023-04-17T22:55:09.507Z,100661.17
2023-04-17T22:57:36.887Z,100656.83
2023-04-17T23:00:06.168Z,100656.91
2023-04-17T23:02:33.784Z,100653.77
2023-04-17T23:05:01.059Z,100653.62
2023-04-17T23:07:28.849Z,100650.17
2023-04-17T23:09:56.208Z,100649.27
2023-04-17T23:12:24.620Z,100647.73
2023-04-17T23:14:51.967Z,100647.30
2023-04-17T23:17:19.228Z,100649.59
2023-04-17T23:19:46.537Z,100649.27
2023-04-17T23:22:14.003Z,100644.52
2023-04-17T23:24:41.339Z,100649.27
2023-04-17T23:27:08.895Z,100647.39
2023-04-17T23:29:36.596Z,100638.36
2023-04-17T23:32:04.278Z,100639.33
2023-04-17T23:34:32.108Z,100641.98
2023-04-17T23:36:59.698Z,100644.05
2023-04-17T23:39:26.995Z,100636.73
2023-04-17T23:41:57.472Z,100643.00
2023-04-17T23:44:24.914Z,100640.16
2023-04-17T23:46:52.429Z,100640.95
2023-04-17T23:49:20.408Z,100642.02
2023-04-17T23:51:47.841Z,100640.09
2023-04-17T23:54:15.512Z,100639.18
2023-04-17T23:56:43.595Z,100644.48
2023-04-17T23:59:11.221Z,100636.29
